sensor_id;sensor_type;location;lat;lon;timestamp;P1;durP1;ratioP1;P2;durP2;ratioP2
71655;SDS011;59497;48.798;8.816;2023-07-28T00:02:15;4.20;;;2.47;;
71655;SDS011;59497;48.798;8.816;2023-07-28T00:04:40;3.03;;;2.00;;
71655;SDS011;59497;48.798;8.816;2023-07-28T00:07:05;3.13;;;2.60;;
71655;SDS011;59497;48.798;8.816;2023-07-28T00:09:30;2.83;;;2.23;;
71655;SDS011;59497;48.798;8.816;2023-07-28T00:11:59;2.77;;;2.40;;
71655;SDS011;59497;48.798;8.816;2023-07-28T00:14:24;4.10;;;2.03;;
71655;SDS011;59497;48.798;8.816;2023-07-28T00:16:50;4.32;;;2.22;;
71655;SDS011;59497;48.798;8.816;2023-07-28T00:19:15;3.13;;;2.13;;
71655;SDS011;59497;48.798;8.816;2023-07-28T00:21:40;3.08;;;2.20;;
71655;SDS011;59497;48.798;8.816;2023-07-28T00:24:06;2.97;;;2.23;;
71655;SDS011;59497;48.798;8.816;2023-07-28T00:26:31;3.30;;;2.60;;
71655;SDS011;59497;48.798;8.816;2023-07-28T00:28:56;3.07;;;2.23;;
71655;SDS011;59497;48.798;8.816;2023-07-28T00:31:23;4.47;;;2.28;;
71655;SDS011;59497;48.798;8.816;2023-07-28T00:33:48;3.20;;;2.30;;
71655;SDS011;59497;48.798;8.816;2023-07-28T00:36:13;2.77;;;2.13;;
71655;SDS011;59497;48.798;8.816;2023-07-28T00:38:38;2.87;;;1.93;;
71655;SDS011;59497;48.798;8.816;2023-07-28T00:41:03;2.70;;;2.27;;
71655;SDS011;59497;48.798;8.816;2023-07-28T00:43:28;4.20;;;3.00;;
71655;SDS011;59497;48.798;8.816;2023-07-28T00:45:54;2.60;;;2.27;;
71655;SDS011;59497;48.798;8.816;2023-07-28T00:48:19;3.00;;;2.30;;
71655;SDS011;59497;48.798;8.816;2023-07-28T00:50:45;2.80;;;2.10;;
71655;SDS011;59497;48.798;8.816;2023-07-28T00:53:11;2.83;;;2.00;;
71655;SDS011;59497;48.798;8.816;2023-07-28T00:55:37;4.03;;;1.90;;
71655;SDS011;59497;48.798;8.816;2023-07-28T00:58:02;5.20;;;2.13;;
71655;SDS011;59497;48.798;8.816;2023-07-28T01:00:27;3.67;;;2.47;;
71655;SDS011;59497;48.798;8.816;2023-07-28T01:02:52;2.40;;;1.80;;
71655;SDS011;59497;48.798;8.816;2023-07-28T01:05:18;2.97;;;1.73;;
71655;SDS011;59497;48.798;8.816;2023-07-28T01:07:47;3.08;;;1.70;;
71655;SDS011;59497;48.798;8.816;2023-07-28T01:10:16;4.47;;;2.28;;
71655;SDS011;59497;48.798;8.816;2023-07-28T01:12:42;2.35;;;1.88;;
71655;SDS011;59497;48.798;8.816;2023-07-28T01:15:07;2.33;;;1.90;;
71655;SDS011;59497;48.798;8.816;2023-07-28T01:17:32;3.13;;;1.90;;
71655;SDS011;59497;48.798;8.816;2023-07-28T01:19:58;2.30;;;1.77;;
71655;SDS011;59497;48.798;8.816;2023-07-28T01:27:44;2.33;;;1.65;;
71655;SDS011;59497;48.798;8.816;2023-07-28T01:30:10;3.00;;;1.40;;
71655;SDS011;59497;48.798;8.816;2023-07-28T01:32:36;3.00;;;1.60;;
71655;SDS011;59497;48.798;8.816;2023-07-28T01:35:02;3.87;;;1.83;;
71655;SDS011;59497;48.798;8.816;2023-07-28T01:37:28;3.75;;;2.15;;
71655;SDS011;59497;48.798;8.816;2023-07-28T01:39:53;3.43;;;1.83;;
71655;SDS011;59497;48.798;8.816;2023-07-28T01:42:19;3.73;;;2.00;;
71655;SDS011;59497;48.798;8.816;2023-07-28T01:44:44;1.87;;;1.23;;
71655;SDS011;59497;48.798;8.816;2023-07-28T01:47:10;3.73;;;1.70;;
71655;SDS011;59497;48.798;8.816;2023-07-28T01:49:35;2.72;;;1.55;;
71655;SDS011;59497;48.798;8.816;2023-07-28T01:52:00;3.27;;;2.17;;
71655;SDS011;59497;48.798;8.816;2023-07-28T01:54:25;2.50;;;2.30;;
71655;SDS011;59497;48.798;8.816;2023-07-28T01:56:50;2.77;;;2.00;;
71655;SDS011;59497;48.798;8.816;2023-07-28T01:59:16;2.30;;;2.00;;
71655;SDS011;59497;48.798;8.816;2023-07-28T02:01:41;4.43;;;2.47;;
71655;SDS011;59497;48.798;8.816;2023-07-28T02:04:06;4.00;;;2.00;;
71655;SDS011;59497;48.798;8.816;2023-07-28T02:06:31;3.90;;;2.25;;
71655;SDS011;59497;48.798;8.816;2023-07-28T02:08:56;3.93;;;2.40;;
71655;SDS011;59497;48.798;8.816;2023-07-28T02:11:22;2.50;;;1.83;;
71655;SDS011;59497;48.798;8.816;2023-07-28T02:13:47;3.73;;;2.60;;
71655;SDS011;59497;48.798;8.816;2023-07-28T02:16:12;3.53;;;2.40;;
71655;SDS011;59497;48.798;8.816;2023-07-28T02:18:37;3.43;;;2.20;;
71655;SDS011;59497;48.798;8.816;2023-07-28T02:21:02;4.23;;;2.53;;
71655;SDS011;59497;48.798;8.816;2023-07-28T02:23:28;2.57;;;2.10;;
71655;SDS011;59497;48.798;8.816;2023-07-28T02:25:53;3.90;;;2.43;;
71655;SDS011;59497;48.798;8.816;2023-07-28T02:28:18;2.80;;;2.40;;
71655;SDS011;59497;48.798;8.816;2023-07-28T02:30:43;2.77;;;2.00;;
71655;SDS011;59497;48.798;8.816;2023-07-28T02:33:08;2.80;;;1.80;;
71655;SDS011;59497;48.798;8.816;2023-07-28T02:35:34;2.60;;;1.87;;
71655;SDS011;59497;48.798;8.816;2023-07-28T02:37:59;2.97;;;2.17;;
71655;SDS011;59497;48.798;8.816;2023-07-28T02:40:25;3.17;;;2.07;;
71655;SDS011;59497;48.798;8.816;2023-07-28T02:42:50;5.40;;;1.83;;
71655;SDS011;59497;48.798;8.816;2023-07-28T02:45:15;3.87;;;1.97;;
71655;SDS011;59497;48.798;8.816;2023-07-28T02:47:40;4.20;;;2.33;;
71655;SDS011;59497;48.798;8.816;2023-07-28T02:50:05;2.70;;;2.00;;
71655;SDS011;59497;48.798;8.816;2023-07-28T02:52:31;2.93;;;2.00;;
71655;SDS011;59497;48.798;8.816;2023-07-28T02:54:56;2.73;;;2.20;;
71655;SDS011;59497;48.798;8.816;2023-07-28T02:57:21;2.67;;;1.73;;
71655;SDS011;59497;48.798;8.816;2023-07-28T02:59:46;3.40;;;2.20;;
71655;SDS011;59497;48.798;8.816;2023-07-28T03:02:11;2.80;;;1.80;;
71655;SDS011;59497;48.798;8.816;2023-07-28T03:04:37;4.00;;;2.50;;
71655;SDS011;59497;48.798;8.816;2023-07-28T03:07:02;3.73;;;2.20;;
71655;SDS011;59497;48.798;8.816;2023-07-28T03:09:27;3.57;;;2.27;;
71655;SDS011;59497;48.798;8.816;2023-07-28T03:11:52;2.83;;;2.40;;
71655;SDS011;59497;48.798;8.816;2023-07-28T03:14:17;2.90;;;2.10;;
71655;SDS011;59497;48.798;8.816;2023-07-28T03:16:43;5.83;;;2.00;;
71655;SDS011;59497;48.798;8.816;2023-07-28T03:19:08;2.97;;;1.97;;
71655;SDS011;59497;48.798;8.816;2023-07-28T03:21:33;2.63;;;2.07;;
71655;SDS011;59497;48.798;8.816;2023-07-28T03:23:58;5.03;;;2.10;;
71655;SDS011;59497;48.798;8.816;2023-07-28T03:26:24;2.80;;;2.00;;
71655;SDS011;59497;48.798;8.816;2023-07-28T03:28:49;3.43;;;2.27;;
71655;SDS011;59497;48.798;8.816;2023-07-28T03:31:14;4.60;;;2.40;;
71655;SDS011;59497;48.798;8.816;2023-07-28T03:33:39;3.03;;;2.13;;
71655;SDS011;59497;48.798;8.816;2023-07-28T03:36:04;3.13;;;2.47;;
71655;SDS011;59497;48.798;8.816;2023-07-28T03:38:30;3.20;;;2.23;;
71655;SDS011;59497;48.798;8.816;2023-07-28T03:40:55;2.87;;;2.00;;
71655;SDS011;59497;48.798;8.816;2023-07-28T03:43:20;2.57;;;2.03;;
71655;SDS011;59497;48.798;8.816;2023-07-28T03:45:45;3.33;;;2.50;;
71655;SDS011;59497;48.798;8.816;2023-07-28T03:48:10;3.43;;;2.20;;
71655;SDS011;59497;48.798;8.816;2023-07-28T03:50:36;3.27;;;2.50;;
71655;SDS011;59497;48.798;8.816;2023-07-28T03:53:01;5.00;;;2.20;;
71655;SDS011;59497;48.798;8.816;2023-07-28T03:55:26;4.50;;;2.30;;
71655;SDS011;59497;48.798;8.816;2023-07-28T03:57:51;3.80;;;2.60;;
71655;SDS011;59497;48.798;8.816;2023-07-28T04:00:16;3.17;;;2.20;;
71655;SDS011;59497;48.798;8.816;2023-07-28T04:02:41;2.83;;;2.20;;
71655;SDS011;59497;48.798;8.816;2023-07-28T04:05:07;3.87;;;2.60;;
71655;SDS011;59497;48.798;8.816;2023-07-28T04:07:33;3.60;;;2.75;;
71655;SDS011;59497;48.798;8.816;2023-07-28T04:09:58;5.13;;;3.03;;
71655;SDS011;59497;48.798;8.816;2023-07-28T04:12:23;3.43;;;2.60;;
71655;SDS011;59497;48.798;8.816;2023-07-28T04:14:48;3.87;;;2.43;;
71655;SDS011;59497;48.798;8.816;2023-07-28T04:17:13;4.27;;;2.73;;
71655;SDS011;59497;48.798;8.816;2023-07-28T04:19:39;4.60;;;2.57;;
71655;SDS011;59497;48.798;8.816;2023-07-28T04:22:04;4.33;;;2.60;;
71655;SDS011;59497;48.798;8.816;2023-07-28T04:24:29;3.57;;;2.30;;
71655;SDS011;59497;48.798;8.816;2023-07-28T04:26:54;2.90;;;2.43;;
71655;SDS011;59497;48.798;8.816;2023-07-28T04:29:20;2.90;;;2.27;;
71655;SDS011;59497;48.798;8.816;2023-07-28T04:31:45;3.17;;;2.40;;
71655;SDS011;59497;48.798;8.816;2023-07-28T04:34:10;5.40;;;2.50;;
71655;SDS011;59497;48.798;8.816;2023-07-28T04:36:35;2.97;;;2.30;;
71655;SDS011;59497;48.798;8.816;2023-07-28T04:39:00;2.93;;;2.27;;
71655;SDS011;59497;48.798;8.816;2023-07-28T04:41:26;3.23;;;1.90;;
71655;SDS011;59497;48.798;8.816;2023-07-28T04:43:51;2.77;;;2.10;;
71655;SDS011;59497;48.798;8.816;2023-07-28T04:46:16;3.83;;;2.53;;
71655;SDS011;59497;48.798;8.816;2023-07-28T04:48:41;3.73;;;2.50;;
71655;SDS011;59497;48.798;8.816;2023-07-28T04:51:07;3.87;;;2.00;;
71655;SDS011;59497;48.798;8.816;2023-07-28T04:53:32;3.47;;;2.70;;
71655;SDS011;59497;48.798;8.816;2023-07-28T04:55:57;3.40;;;1.90;;
71655;SDS011;59497;48.798;8.816;2023-07-28T04:58:25;3.93;;;2.87;;
71655;SDS011;59497;48.798;8.816;2023-07-28T05:00:51;3.37;;;2.80;;
71655;SDS011;59497;48.798;8.816;2023-07-28T05:03:16;4.00;;;2.20;;
71655;SDS011;59497;48.798;8.816;2023-07-28T05:05:44;4.87;;;2.50;;
71655;SDS011;59497;48.798;8.816;2023-07-28T05:08:09;3.00;;;2.70;;
71655;SDS011;59497;48.798;8.816;2023-07-28T05:10:34;6.20;;;3.17;;
71655;SDS011;59497;48.798;8.816;2023-07-28T05:13:00;5.13;;;2.50;;
71655;SDS011;59497;48.798;8.816;2023-07-28T05:15:25;3.37;;;2.53;;
71655;SDS011;59497;48.798;8.816;2023-07-28T05:17:50;4.70;;;3.17;;
71655;SDS011;59497;48.798;8.816;2023-07-28T05:20:18;10.63;;;9.83;;
71655;SDS011;59497;48.798;8.816;2023-07-28T05:22:43;13.00;;;12.00;;
71655;SDS011;59497;48.798;8.816;2023-07-28T05:25:08;4.23;;;3.83;;
71655;SDS011;59497;48.798;8.816;2023-07-28T05:27:34;4.67;;;3.00;;
71655;SDS011;59497;48.798;8.816;2023-07-28T05:29:59;3.77;;;3.37;;
71655;SDS011;59497;48.798;8.816;2023-07-28T05:32:24;4.17;;;3.60;;
71655;SDS011;59497;48.798;8.816;2023-07-28T05:34:49;5.03;;;3.17;;
71655;SDS011;59497;48.798;8.816;2023-07-28T05:37:14;4.63;;;3.07;;
71655;SDS011;59497;48.798;8.816;2023-07-28T05:39:40;4.50;;;3.63;;
71655;SDS011;59497;48.798;8.816;2023-07-28T05:42:05;3.80;;;2.90;;
71655;SDS011;59497;48.798;8.816;2023-07-28T05:44:30;4.03;;;3.03;;
71655;SDS011;59497;48.798;8.816;2023-07-28T05:46:55;4.35;;;3.00;;
71655;SDS011;59497;48.798;8.816;2023-07-28T05:49:21;4.60;;;2.87;;
71655;SDS011;59497;48.798;8.816;2023-07-28T05:51:46;5.65;;;3.15;;
71655;SDS011;59497;48.798;8.816;2023-07-28T05:54:14;5.30;;;2.95;;
71655;SDS011;59497;48.798;8.816;2023-07-28T05:56:40;4.40;;;2.63;;
71655;SDS011;59497;48.798;8.816;2023-07-28T05:59:05;3.77;;;2.90;;
71655;SDS011;59497;48.798;8.816;2023-07-28T06:01:30;3.33;;;2.37;;
71655;SDS011;59497;48.798;8.816;2023-07-28T06:03:56;3.35;;;2.65;;
71655;SDS011;59497;48.798;8.816;2023-07-28T06:06:24;3.50;;;2.92;;
71655;SDS011;59497;48.798;8.816;2023-07-28T06:08:49;3.90;;;2.67;;
71655;SDS011;59497;48.798;8.816;2023-07-28T06:11:14;4.10;;;2.70;;
71655;SDS011;59497;48.798;8.816;2023-07-28T06:13:39;3.70;;;2.73;;
71655;SDS011;59497;48.798;8.816;2023-07-28T06:16:04;3.73;;;2.70;;
71655;SDS011;59497;48.798;8.816;2023-07-28T06:18:29;4.30;;;2.70;;
71655;SDS011;59497;48.798;8.816;2023-07-28T06:20:55;5.70;;;2.80;;
71655;SDS011;59497;48.798;8.816;2023-07-28T06:23:20;4.80;;;2.73;;
71655;SDS011;59497;48.798;8.816;2023-07-28T06:25:45;17.37;;;4.43;;
71655;SDS011;59497;48.798;8.816;2023-07-28T06:28:11;7.57;;;3.27;;
71655;SDS011;59497;48.798;8.816;2023-07-28T06:30:36;10.13;;;3.75;;
71655;SDS011;59497;48.798;8.816;2023-07-28T06:33:02;9.03;;;3.50;;
71655;SDS011;59497;48.798;8.816;2023-07-28T06:35:28;5.73;;;3.40;;
71655;SDS011;59497;48.798;8.816;2023-07-28T06:37:53;8.43;;;3.33;;
71655;SDS011;59497;48.798;8.816;2023-07-28T06:40:18;6.60;;;3.70;;
71655;SDS011;59497;48.798;8.816;2023-07-28T06:42:43;4.27;;;2.97;;
71655;SDS011;59497;48.798;8.816;2023-07-28T06:45:09;4.43;;;3.27;;
71655;SDS011;59497;48.798;8.816;2023-07-28T06:47:34;4.60;;;2.93;;
71655;SDS011;59497;48.798;8.816;2023-07-28T06:49:59;3.60;;;2.80;;
71655;SDS011;59497;48.798;8.816;2023-07-28T06:52:24;4.13;;;3.73;;
71655;SDS011;59497;48.798;8.816;2023-07-28T06:54:49;3.80;;;2.37;;
71655;SDS011;59497;48.798;8.816;2023-07-28T06:57:15;3.97;;;3.33;;
71655;SDS011;59497;48.798;8.816;2023-07-28T06:59:41;3.67;;;3.28;;
71655;SDS011;59497;48.798;8.816;2023-07-28T07:02:06;3.70;;;2.67;;
71655;SDS011;59497;48.798;8.816;2023-07-28T07:04:31;3.87;;;2.90;;
71655;SDS011;59497;48.798;8.816;2023-07-28T07:06:56;3.83;;;3.20;;
71655;SDS011;59497;48.798;8.816;2023-07-28T07:09:21;3.23;;;2.70;;
71655;SDS011;59497;48.798;8.816;2023-07-28T07:11:47;3.33;;;2.60;;
71655;SDS011;59497;48.798;8.816;2023-07-28T07:14:12;3.90;;;3.13;;
71655;SDS011;59497;48.798;8.816;2023-07-28T07:16:37;4.10;;;3.43;;
71655;SDS011;59497;48.798;8.816;2023-07-28T07:19:02;3.50;;;3.10;;
71655;SDS011;59497;48.798;8.816;2023-07-28T07:21:28;4.20;;;2.75;;
71655;SDS011;59497;48.798;8.816;2023-07-28T07:23:54;2.93;;;2.40;;
71655;SDS011;59497;48.798;8.816;2023-07-28T07:26:19;2.83;;;2.35;;
71655;SDS011;59497;48.798;8.816;2023-07-28T07:28:45;3.17;;;2.40;;
71655;SDS011;59497;48.798;8.816;2023-07-28T07:31:13;3.93;;;3.30;;
71655;SDS011;59497;48.798;8.816;2023-07-28T07:33:39;4.60;;;3.20;;
71655;SDS011;59497;48.798;8.816;2023-07-28T07:36:04;5.63;;;2.58;;
71655;SDS011;59497;48.798;8.816;2023-07-28T07:38:29;3.67;;;2.73;;
71655;SDS011;59497;48.798;8.816;2023-07-28T07:40:54;4.40;;;2.50;;
71655;SDS011;59497;48.798;8.816;2023-07-28T07:43:20;2.97;;;2.50;;
71655;SDS011;59497;48.798;8.816;2023-07-28T07:45:45;3.03;;;2.40;;
71655;SDS011;59497;48.798;8.816;2023-07-28T07:48:12;2.15;;;1.60;;
71655;SDS011;59497;48.798;8.816;2023-07-28T07:50:37;2.33;;;1.50;;
71655;SDS011;59497;48.798;8.816;2023-07-28T07:53:02;1.90;;;1.43;;
71655;SDS011;59497;48.798;8.816;2023-07-28T07:55:27;1.70;;;1.53;;
71655;SDS011;59497;48.798;8.816;2023-07-28T07:57:52;2.43;;;1.70;;
71655;SDS011;59497;48.798;8.816;2023-07-28T08:00:17;1.93;;;1.30;;
71655;SDS011;59497;48.798;8.816;2023-07-28T08:02:43;1.90;;;1.60;;
71655;SDS011;59497;48.798;8.816;2023-07-28T08:05:08;2.20;;;1.70;;
71655;SDS011;59497;48.798;8.816;2023-07-28T08:07:34;2.15;;;1.73;;
71655;SDS011;59497;48.798;8.816;2023-07-28T08:10:00;2.23;;;1.97;;
71655;SDS011;59497;48.798;8.816;2023-07-28T08:12:25;3.90;;;2.13;;
71655;SDS011;59497;48.798;8.816;2023-07-28T08:14:51;2.80;;;1.40;;
71655;SDS011;59497;48.798;8.816;2023-07-28T08:17:16;1.60;;;1.40;;
71655;SDS011;59497;48.798;8.816;2023-07-28T08:19:41;1.50;;;1.40;;
71655;SDS011;59497;48.798;8.816;2023-07-28T08:22:06;3.50;;;1.90;;
71655;SDS011;59497;48.798;8.816;2023-07-28T08:24:32;2.80;;;1.63;;
71655;SDS011;59497;48.798;8.816;2023-07-28T08:26:57;2.30;;;1.70;;
71655;SDS011;59497;48.798;8.816;2023-07-28T08:29:22;2.23;;;1.50;;
71655;SDS011;59497;48.798;8.816;2023-07-28T08:31:47;2.70;;;2.20;;
71655;SDS011;59497;48.798;8.816;2023-07-28T08:34:13;2.10;;;1.90;;
71655;SDS011;59497;48.798;8.816;2023-07-28T08:36:38;1.90;;;1.80;;
71655;SDS011;59497;48.798;8.816;2023-07-28T08:39:03;2.63;;;2.23;;
71655;SDS011;59497;48.798;8.816;2023-07-28T08:41:29;2.30;;;2.10;;
71655;SDS011;59497;48.798;8.816;2023-07-28T08:43:54;4.33;;;1.50;;
71655;SDS011;59497;48.798;8.816;2023-07-28T08:46:19;1.90;;;1.70;;
71655;SDS011;59497;48.798;8.816;2023-07-28T08:48:44;2.10;;;1.80;;
71655;SDS011;59497;48.798;8.816;2023-07-28T08:51:10;2.45;;;2.10;;
71655;SDS011;59497;48.798;8.816;2023-07-28T08:53:37;1.97;;;1.77;;
71655;SDS011;59497;48.798;8.816;2023-07-28T08:56:02;2.08;;;1.95;;
71655;SDS011;59497;48.798;8.816;2023-07-28T08:58:28;2.53;;;1.93;;
71655;SDS011;59497;48.798;8.816;2023-07-28T09:00:54;2.72;;;2.22;;
71655;SDS011;59497;48.798;8.816;2023-07-28T09:03:19;2.30;;;2.10;;
71655;SDS011;59497;48.798;8.816;2023-07-28T09:05:46;2.55;;;2.13;;
71655;SDS011;59497;48.798;8.816;2023-07-28T09:08:12;2.40;;;2.07;;
71655;SDS011;59497;48.798;8.816;2023-07-28T09:10:40;3.03;;;2.22;;
71655;SDS011;59497;48.798;8.816;2023-07-28T09:13:08;2.55;;;2.10;;
71655;SDS011;59497;48.798;8.816;2023-07-28T09:15:35;2.03;;;1.83;;
71655;SDS011;59497;48.798;8.816;2023-07-28T09:18:00;2.33;;;2.03;;
71655;SDS011;59497;48.798;8.816;2023-07-28T09:20:25;2.17;;;1.97;;
71655;SDS011;59497;48.798;8.816;2023-07-28T09:22:58;3.50;;;1.92;;
71655;SDS011;59497;48.798;8.816;2023-07-28T09:25:23;1.83;;;1.73;;
71655;SDS011;59497;48.798;8.816;2023-07-28T09:27:51;2.43;;;2.23;;
71655;SDS011;59497;48.798;8.816;2023-07-28T09:30:17;4.63;;;2.08;;
71655;SDS011;59497;48.798;8.816;2023-07-28T09:32:46;3.00;;;2.00;;
71655;SDS011;59497;48.798;8.816;2023-07-28T09:35:12;2.45;;;2.22;;
71655;SDS011;59497;48.798;8.816;2023-07-28T09:37:38;1.92;;;1.70;;
71655;SDS011;59497;48.798;8.816;2023-07-28T09:40:05;2.67;;;2.03;;
71655;SDS011;59497;48.798;8.816;2023-07-28T09:42:31;1.65;;;1.55;;
71655;SDS011;59497;48.798;8.816;2023-07-28T09:44:56;1.83;;;1.23;;
71655;SDS011;59497;48.798;8.816;2023-07-28T09:47:22;2.03;;;1.30;;
71655;SDS011;59497;48.798;8.816;2023-07-28T09:49:48;2.60;;;2.13;;
71655;SDS011;59497;48.798;8.816;2023-07-28T09:52:15;1.40;;;1.17;;
71655;SDS011;59497;48.798;8.816;2023-07-28T09:54:42;3.50;;;1.63;;
71655;SDS011;59497;48.798;8.816;2023-07-28T09:57:08;2.33;;;1.63;;
71655;SDS011;59497;48.798;8.816;2023-07-28T09:59:38;1.60;;;1.50;;
71655;SDS011;59497;48.798;8.816;2023-07-28T10:02:03;1.55;;;1.45;;
71655;SDS011;59497;48.798;8.816;2023-07-28T10:04:30;1.03;;;0.93;;
71655;SDS011;59497;48.798;8.816;2023-07-28T10:06:55;2.17;;;1.35;;
71655;SDS011;59497;48.798;8.816;2023-07-28T10:09:22;1.40;;;1.30;;
71655;SDS011;59497;48.798;8.816;2023-07-28T10:11:48;1.38;;;1.27;;
71655;SDS011;59497;48.798;8.816;2023-07-28T10:14:24;1.90;;;1.70;;
71655;SDS011;59497;48.798;8.816;2023-07-28T10:16:49;1.85;;;1.38;;
71655;SDS011;59497;48.798;8.816;2023-07-28T10:19:16;1.63;;;1.10;;
71655;SDS011;59497;48.798;8.816;2023-07-28T10:21:44;1.48;;;1.13;;
71655;SDS011;59497;48.798;8.816;2023-07-28T10:24:10;1.07;;;0.97;;
71655;SDS011;59497;48.798;8.816;2023-07-28T10:26:39;1.53;;;1.43;;
71655;SDS011;59497;48.798;8.816;2023-07-28T10:29:15;1.80;;;1.08;;
71655;SDS011;59497;48.798;8.816;2023-07-28T10:31:50;1.23;;;1.13;;
71655;SDS011;59497;48.798;8.816;2023-07-28T10:34:16;1.50;;;0.93;;
71655;SDS011;59497;48.798;8.816;2023-07-28T10:36:43;1.48;;;1.38;;
71655;SDS011;59497;48.798;8.816;2023-07-28T10:39:15;1.00;;;0.90;;
71655;SDS011;59497;48.798;8.816;2023-07-28T10:44:19;1.67;;;1.58;;
71655;SDS011;59497;48.798;8.816;2023-07-28T10:46:44;1.43;;;1.10;;
71655;SDS011;59497;48.798;8.816;2023-07-28T10:49:10;1.50;;;1.40;;
71655;SDS011;59497;48.798;8.816;2023-07-28T10:51:35;1.07;;;0.97;;
71655;SDS011;59497;48.798;8.816;2023-07-28T10:54:01;1.30;;;1.10;;
71655;SDS011;59497;48.798;8.816;2023-07-28T10:56:29;1.90;;;1.60;;
71655;SDS011;59497;48.798;8.816;2023-07-28T10:58:57;1.67;;;1.57;;
71655;SDS011;59497;48.798;8.816;2023-07-28T11:01:25;1.85;;;1.75;;
71655;SDS011;59497;48.798;8.816;2023-07-28T11:03:55;1.83;;;1.50;;
71655;SDS011;59497;48.798;8.816;2023-07-28T11:06:20;2.00;;;1.90;;
71655;SDS011;59497;48.798;8.816;2023-07-28T11:08:45;1.93;;;1.73;;
71655;SDS011;59497;48.798;8.816;2023-07-28T11:11:10;1.40;;;1.30;;
71655;SDS011;59497;48.798;8.816;2023-07-28T11:13:35;2.10;;;1.37;;
71655;SDS011;59497;48.798;8.816;2023-07-28T11:16:01;1.30;;;1.20;;
71655;SDS011;59497;48.798;8.816;2023-07-28T11:18:26;2.27;;;2.07;;
71655;SDS011;59497;48.798;8.816;2023-07-28T11:20:51;2.33;;;2.13;;
71655;SDS011;59497;48.798;8.816;2023-07-28T11:23:16;1.77;;;1.67;;
71655;SDS011;59497;48.798;8.816;2023-07-28T11:25:42;2.15;;;1.98;;
71655;SDS011;59497;48.798;8.816;2023-07-28T11:28:09;1.95;;;1.75;;
71655;SDS011;59497;48.798;8.816;2023-07-28T11:30:35;1.43;;;1.33;;
71655;SDS011;59497;48.798;8.816;2023-07-28T11:33:02;1.55;;;1.40;;
71655;SDS011;59497;48.798;8.816;2023-07-28T11:35:28;2.17;;;1.92;;
71655;SDS011;59497;48.798;8.816;2023-07-28T11:37:53;3.97;;;1.87;;
71655;SDS011;59497;48.798;8.816;2023-07-28T11:40:20;2.55;;;1.83;;
71655;SDS011;59497;48.798;8.816;2023-07-28T11:42:46;2.30;;;2.10;;
71655;SDS011;59497;48.798;8.816;2023-07-28T11:45:13;3.45;;;2.38;;
71655;SDS011;59497;48.798;8.816;2023-07-28T11:47:38;2.07;;;1.57;;
71655;SDS011;59497;48.798;8.816;2023-07-28T11:50:03;2.07;;;1.70;;
71655;SDS011;59497;48.798;8.816;2023-07-28T11:52:32;4.82;;;2.20;;
71655;SDS011;59497;48.798;8.816;2023-07-28T11:55:02;2.35;;;2.00;;
71655;SDS011;59497;48.798;8.816;2023-07-28T11:57:28;3.72;;;2.78;;
71655;SDS011;59497;48.798;8.816;2023-07-28T11:59:55;2.20;;;2.00;;
71655;SDS011;59497;48.798;8.816;2023-07-28T12:02:25;2.70;;;1.90;;
71655;SDS011;59497;48.798;8.816;2023-07-28T12:04:50;2.57;;;2.37;;
71655;SDS011;59497;48.798;8.816;2023-07-28T12:07:18;3.08;;;2.45;;
71655;SDS011;59497;48.798;8.816;2023-07-28T12:12:15;2.13;;;1.80;;
71655;SDS011;59497;48.798;8.816;2023-07-28T12:14:40;3.63;;;2.28;;
71655;SDS011;59497;48.798;8.816;2023-07-28T12:17:15;2.80;;;2.37;;
71655;SDS011;59497;48.798;8.816;2023-07-28T12:19:41;4.53;;;2.42;;
71655;SDS011;59497;48.798;8.816;2023-07-28T12:22:06;3.10;;;2.10;;
71655;SDS011;59497;48.798;8.816;2023-07-28T12:24:32;3.22;;;2.22;;
71655;SDS011;59497;48.798;8.816;2023-07-28T12:26:58;3.20;;;2.90;;
71655;SDS011;59497;48.798;8.816;2023-07-28T12:29:23;2.75;;;2.38;;
71655;SDS011;59497;48.798;8.816;2023-07-28T12:31:48;2.60;;;2.23;;
71655;SDS011;59497;48.798;8.816;2023-07-28T12:34:14;3.30;;;1.90;;
71655;SDS011;59497;48.798;8.816;2023-07-28T12:36:39;4.40;;;2.30;;
71655;SDS011;59497;48.798;8.816;2023-07-28T12:39:04;4.17;;;2.30;;
71655;SDS011;59497;48.798;8.816;2023-07-28T12:41:31;2.33;;;2.13;;
71655;SDS011;59497;48.798;8.816;2023-07-28T12:43:56;2.33;;;1.90;;
71655;SDS011;59497;48.798;8.816;2023-07-28T12:46:21;2.90;;;2.00;;
71655;SDS011;59497;48.798;8.816;2023-07-28T12:48:46;4.50;;;2.57;;
71655;SDS011;59497;48.798;8.816;2023-07-28T12:51:11;4.10;;;2.40;;
71655;SDS011;59497;48.798;8.816;2023-07-28T12:53:36;3.53;;;2.70;;
71655;SDS011;59497;48.798;8.816;2023-07-28T12:56:02;3.03;;;2.70;;
71655;SDS011;59497;48.798;8.816;2023-07-28T12:58:27;2.97;;;2.37;;
71655;SDS011;59497;48.798;8.816;2023-07-28T13:00:53;3.63;;;2.72;;
71655;SDS011;59497;48.798;8.816;2023-07-28T13:03:19;3.27;;;2.73;;
71655;SDS011;59497;48.798;8.816;2023-07-28T13:05:44;3.30;;;2.10;;
71655;SDS011;59497;48.798;8.816;2023-07-28T13:08:11;3.55;;;2.67;;
71655;SDS011;59497;48.798;8.816;2023-07-28T13:10:37;2.80;;;2.30;;
71655;SDS011;59497;48.798;8.816;2023-07-28T13:13:02;2.97;;;2.67;;
71655;SDS011;59497;48.798;8.816;2023-07-28T13:15:27;2.63;;;2.23;;
71655;SDS011;59497;48.798;8.816;2023-07-28T13:17:53;3.28;;;2.10;;
71655;SDS011;59497;48.798;8.816;2023-07-28T13:20:18;2.87;;;2.60;;
71655;SDS011;59497;48.798;8.816;2023-07-28T13:22:43;3.03;;;2.57;;
71655;SDS011;59497;48.798;8.816;2023-07-28T13:25:08;3.17;;;2.00;;
71655;SDS011;59497;48.798;8.816;2023-07-28T13:27:33;2.73;;;2.17;;
71655;SDS011;59497;48.798;8.816;2023-07-28T13:29:59;2.77;;;2.47;;
71655;SDS011;59497;48.798;8.816;2023-07-28T13:32:25;3.07;;;2.20;;
71655;SDS011;59497;48.798;8.816;2023-07-28T13:34:50;4.60;;;2.38;;
71655;SDS011;59497;48.798;8.816;2023-07-28T13:37:17;5.20;;;2.78;;
71655;SDS011;59497;48.798;8.816;2023-07-28T13:39:42;4.77;;;2.10;;
71655;SDS011;59497;48.798;8.816;2023-07-28T13:42:08;3.47;;;2.20;;
71655;SDS011;59497;48.798;8.816;2023-07-28T13:44:33;4.03;;;2.70;;
71655;SDS011;59497;48.798;8.816;2023-07-28T13:46:58;5.73;;;2.70;;
71655;SDS011;59497;48.798;8.816;2023-07-28T13:49:24;2.97;;;2.40;;
71655;SDS011;59497;48.798;8.816;2023-07-28T13:51:50;3.90;;;2.33;;
71655;SDS011;59497;48.798;8.816;2023-07-28T13:54:15;3.53;;;2.60;;
71655;SDS011;59497;48.798;8.816;2023-07-28T13:56:40;3.40;;;2.70;;
71655;SDS011;59497;48.798;8.816;2023-07-28T13:59:05;4.13;;;2.40;;
71655;SDS011;59497;48.798;8.816;2023-07-28T14:01:30;4.00;;;2.60;;
71655;SDS011;59497;48.798;8.816;2023-07-28T14:03:56;5.30;;;3.27;;
71655;SDS011;59497;48.798;8.816;2023-07-28T14:06:21;3.57;;;2.57;;
71655;SDS011;59497;48.798;8.816;2023-07-28T14:08:46;3.97;;;3.57;;
71655;SDS011;59497;48.798;8.816;2023-07-28T14:11:11;4.37;;;2.77;;
71655;SDS011;59497;48.798;8.816;2023-07-28T14:13:37;4.10;;;3.08;;
71655;SDS011;59497;48.798;8.816;2023-07-28T14:16:02;4.17;;;2.50;;
71655;SDS011;59497;48.798;8.816;2023-07-28T14:18:27;3.60;;;2.27;;
71655;SDS011;59497;48.798;8.816;2023-07-28T14:20:52;4.47;;;2.67;;
71655;SDS011;59497;48.798;8.816;2023-07-28T14:23:21;3.50;;;2.60;;
71655;SDS011;59497;48.798;8.816;2023-07-28T14:25:47;3.47;;;2.57;;
71655;SDS011;59497;48.798;8.816;2023-07-28T14:28:12;5.60;;;2.43;;
71655;SDS011;59497;48.798;8.816;2023-07-28T14:30:38;3.83;;;3.13;;
71655;SDS011;59497;48.798;8.816;2023-07-28T14:33:03;3.90;;;3.03;;
71655;SDS011;59497;48.798;8.816;2023-07-28T14:35:28;6.00;;;2.80;;
71655;SDS011;59497;48.798;8.816;2023-07-28T14:37:53;3.30;;;2.70;;
71655;SDS011;59497;48.798;8.816;2023-07-28T14:40:18;3.97;;;2.20;;
71655;SDS011;59497;48.798;8.816;2023-07-28T14:42:43;3.10;;;2.80;;
71655;SDS011;59497;48.798;8.816;2023-07-28T14:45:09;3.50;;;2.63;;
71655;SDS011;59497;48.798;8.816;2023-07-28T14:47:34;4.77;;;2.70;;
71655;SDS011;59497;48.798;8.816;2023-07-28T14:49:59;3.90;;;3.05;;